Time;durP1;ratioP1;P1;durP2;ratioP2;P2;SDS_P1;SDS_P2;PMS_P1;PMS_P2;Temp;Humidity;BMP_temperature;BMP_pressure;BME280_temperature;BME280_humidity;BME280_pressure;Samples;Min_cycle;Max_cycle;Signal;HPM_P1;HPM_P2
2024/01/13 00:01:01;;;;;;;;;;;;;;;1.75;100.00;102887.03;6247383;22;19903;-81
2024/01/13 00:03:26;;;;;;;;;;;;;;;1.75;100.00;102887.03;6274922;22;20237;-81
2024/01/13 00:05:51;;;;;;;;;;;;;;;1.76;100.00;102878.56;6246926;22;19903;-81
2024/01/13 00:08:16;;;;;;;;;;;;;;;1.77;100.00;102874.31;6274182;22;19952;-81
2024/01/13 00:10:42;;;;;;;;;;;;;;;1.76;100.00;102875.09;6246922;22;19907;-81
2024/01/13 00:13:08;;;;;;;;;;;;;;;1.77;100.00;102874.31;6275011;22;19956;-81
2024/01/13 00:15:33;;;;;;;;;;;;;;;1.74;100.00;102870.72;6274424;22;19968;-81
2024/01/13 00:17:58;;;;;;;;;;;;;;;1.73;100.00;102861.19;6274838;22;19965;-81
2024/01/13 00:20:24;;;;;;;;;;;;;;;1.75;100.00;102858.75;6273930;22;19911;-81
2024/01/13 00:22:49;;;;;;;;;;;;;;;1.74;100.00;102860.44;6274077;22;20344;-81
2024/01/13 00:25:17;;;;;;;;;;;;;;;1.74;100.00;102854.41;6274684;22;19907;-81
2024/01/13 00:27:42;;;;;;;;;;;;;;;1.73;100.00;102848.34;6275203;22;19910;-81
2024/01/13 00:30:08;;;;;;;;;;;;;;;1.75;100.00;102851.03;6274044;22;19907;-81
2024/01/13 00:32:33;;;;;;;;;;;;;;;1.74;100.00;102851.84;6273793;22;20330;-81
2024/01/13 00:34:58;;;;;;;;;;;;;;;1.73;100.00;102852.59;6274312;22;20246;-81
2024/01/13 00:37:23;;;;;;;;;;;;;;;1.73;100.00;102850.00;6274046;22;20380;-81
2024/01/13 00:39:49;;;;;;;;;;;;;;;1.72;100.00;102843.97;6273662;22;20265;-81
2024/01/13 00:42:14;;;;;;;;;;;;;;;1.74;100.00;102841.56;6247011;22;20253;-81
2024/01/13 00:44:39;;;;;;;;;;;;;;;1.74;100.00;102833.84;6273947;22;19903;-81
2024/01/13 00:47:04;;;;;;;;;;;;;;;1.74;100.00;102834.72;6274225;22;20298;-81
2024/01/13 00:49:29;;;;;;;;;;;;;;;1.74;100.00;102838.97;6274797;22;20343;-81
2024/01/13 00:51:55;;;;;;;;;;;;;;;1.74;100.00;102833.84;6272620;22;19926;-81
2024/01/13 00:54:21;;;;;;;;;;;;;;;1.72;100.00;102825.06;6246706;22;20141;-81
2024/01/13 00:56:46;;;;;;;;;;;;;;;1.70;100.00;102832.63;6273822;22;19945;-81
2024/01/13 00:59:11;;;;;;;;;;;;;;;1.69;100.00;102829.94;6274412;22;19941;-81
2024/01/13 01:01:36;;;;;;;;;;;;;;;1.67;100.00;102834.94;6273534;22;20286;-81
2024/01/13 01:04:02;;;;;;;;;;;;;;;1.68;100.00;102822.97;6247303;22;19961;-81
2024/01/13 01:06:27;;;;;;;;;;;;;;;1.67;100.00;102824.66;6274074;22;19895;-81
2024/01/13 01:08:52;;;;;;;;;;;;;;;1.68;100.00;102817.84;6273930;22;20242;-81
2024/01/13 01:11:18;;;;;;;;;;;;;;;1.68;100.00;102810.13;6274352;22;19903;-81
2024/01/13 01:13:43;;;;;;;;;;;;;;;1.70;100.00;102816.34;6272683;22;19907;-81
2024/01/13 01:16:09;;;;;;;;;;;;;;;1.71;100.00;102816.47;6272571;22;19907;-81
2024/01/13 01:18:34;;;;;;;;;;;;;;;1.73;100.00;102816.59;6274200;22;19915;-81
2024/01/13 01:20:59;;;;;;;;;;;;;;;1.73;100.00;102812.34;6246246;22;19907;-81
2024/01/13 01:23:24;;;;;;;;;;;;;;;1.74;100.00;102801.31;6246153;22;19989;-81
2024/01/13 01:25:50;;;;;;;;;;;;;;;1.75;100.00;102804.78;6273807;22;19907;-81
2024/01/13 01:28:15;;;;;;;;;;;;;;;1.75;100.00;102807.34;6273958;22;20323;-81
2024/01/13 01:30:40;;;;;;;;;;;;;;;1.76;100.00;102796.31;6273410;22;20262;-81
2024/01/13 01:33:06;;;;;;;;;;;;;;;1.77;100.00;102797.22;6273971;22;19957;-81
2024/01/13 01:35:31;;;;;;;;;;;;;;;1.77;100.00;102795.56;6246809;22;19914;-81
2024/01/13 01:37:56;;;;;;;;;;;;;;;1.77;100.00;102790.44;6274019;22;19915;-81
2024/01/13 01:40:24;;;;;;;;;;;;;;;1.77;100.00;102787.84;6246769;22;19907;-81
2024/01/13 01:42:49;;;;;;;;;;;;;;;1.77;100.00;102785.28;6245071;22;19942;-81
2024/01/13 01:45:14;;;;;;;;;;;;;;;1.78;100.00;102783.59;6273147;22;19907;-81
2024/01/13 01:47:41;;;;;;;;;;;;;;;1.78;100.00;102783.59;6246734;22;19934;-81
2024/01/13 01:50:06;;;;;;;;;;;;;;;1.78;100.00;102789.63;6244404;22;20233;-81
2024/01/13 01:52:31;;;;;;;;;;;;;;;1.77;100.00;102787.84;6273319;22;19903;-81
2024/01/13 01:54:57;;;;;;;;;;;;;;;1.78;100.00;102778.47;6273055;22;19910;-81
2024/01/13 01:57:22;;;;;;;;;;;;;;;1.78;100.00;102781.03;6247299;22;20455;-81
2024/01/13 01:59:48;;;;;;;;;;;;;;;1.78;100.00;102773.34;6273439;22;19903;-81
2024/01/13 02:02:14;;;;;;;;;;;;;;;1.77;100.00;102777.56;6273396;22;20344;-81
2024/01/13 02:04:39;;;;;;;;;;;;;;;1.77;100.00;102769.88;6273688;22;20004;-81
2024/01/13 02:07:05;;;;;;;;;;;;;;;1.79;100.00;102772.56;6273974;22;20272;-81
2024/01/13 02:09:31;;;;;;;;;;;;;;;1.78;100.00;102766.50;6273915;22;19913;-81
2024/01/13 02:11:57;;;;;;;;;;;;;;;1.79;100.00;102764.88;6273294;22;20094;-81
2024/01/13 02:14:22;;;;;;;;;;;;;;;1.79;100.00;102758.03;6245428;22;20061;-81
2024/01/13 02:16:47;;;;;;;;;;;;;;;1.80;100.00;102761.53;6272625;22;19910;-81
2024/01/13 02:19:13;;;;;;;;;;;;;;;1.79;100.00;102750.34;6272681;22;20341;-81
2024/01/13 02:21:41;;;;;;;;;;;;;;;1.80;100.00;102753.84;6273682;22;19903;-80
2024/01/13 02:24:06;;;;;;;;;;;;;;;1.80;100.00;102741.88;6246792;22;19907;-81
2024/01/13 02:26:33;;;;;;;;;;;;;;;1.80;100.00;102752.16;6273811;22;19978;-81
2024/01/13 02:28:58;;;;;;;;;;;;;;;1.81;100.00;102735.97;6246643;22;19903;-81
2024/01/13 02:31:23;;;;;;;;;;;;;;;1.82;100.00;102735.19;6273698;22;19912;-81
2024/01/13 02:33:52;;;;;;;;;;;;;;;1.83;100.00;102728.41;6246963;22;19991;-81
2024/01/13 02:36:17;;;;;;;;;;;;;;;1.83;100.00;102729.28;6273726;22;19907;-81
2024/01/13 02:38:43;;;;;;;;;;;;;;;1.84;100.00;102725.03;6272334;22;19922;-81
2024/01/13 02:41:08;;;;;;;;;;;;;;;1.82;100.00;102730.03;6273330;22;20142;-81
2024/01/13 02:43:34;;;;;;;;;;;;;;;1.83;100.00;102726.72;6272807;22;19903;-81
2024/01/13 02:45:59;;;;;;;;;;;;;;;1.82;100.00;102714.63;6270273;22;19934;-81
2024/01/13 02:48:25;;;;;;;;;;;;;;;1.83;100.00;102718.13;6268702;22;20322;-81
2024/01/13 02:50:53;;;;;;;;;;;;;;;1.84;100.00;102715.69;6269793;22;20382;-80
2024/01/13 02:53:19;;;;;;;;;;;;;;;1.84;100.00;102707.03;6243450;22;20112;-81
2024/01/13 02:55:44;;;;;;;;;;;;;;;1.85;100.00;102714.00;6269101;22;20353;-81
2024/01/13 02:58:09;;;;;;;;;;;;;;;1.83;100.00;102690.72;6269160;22;20253;-81
2024/01/13 03:00:34;;;;;;;;;;;;;;;1.85;100.00;102702.03;6270283;22;19907;-81
2024/01/13 03:02:59;;;;;;;;;;;;;;;1.85;100.00;102696.00;6273056;22;19941;-81
2024/01/13 03:05:25;;;;;;;;;;;;;;;1.84;100.00;102684.84;6245973;22;19914;-81
2024/01/13 03:07:50;;;;;;;;;;;;;;;1.85;100.00;102686.63;6274062;22;20322;-81
2024/01/13 03:10:15;;;;;;;;;;;;;;;1.85;100.00;102680.59;6273278;22;20336;-81
2024/01/13 03:12:40;;;;;;;;;;;;;;;1.86;100.00;102683.28;6271400;22;19903;-81
2024/01/13 03:15:06;;;;;;;;;;;;;;;1.86;100.00;102678.16;6270021;22;20326;-81
2024/01/13 03:17:31;;;;;;;;;;;;;;;1.87;100.00;102682.53;6269175;22;19907;-81
2024/01/13 03:19:56;;;;;;;;;;;;;;;1.88;100.00;102663.78;6268298;22;19907;-80
2024/01/13 03:22:22;;;;;;;;;;;;;;;1.89;100.00;102655.28;6272192;22;19943;-81
2024/01/13 03:24:47;;;;;;;;;;;;;;;1.90;100.00;102651.97;6270404;22;19942;-81
2024/01/13 03:27:12;;;;;;;;;;;;;;;1.90;100.00;102645.94;6268593;22;19911;-81
2024/01/13 03:29:38;;;;;;;;;;;;;;;1.91;100.00;102647.72;6270523;22;19907;-81
2024/01/13 03:32:03;;;;;;;;;;;;;;;1.92;100.00;102646.94;6270531;22;20314;-81
2024/01/13 03:34:29;;;;;;;;;;;;;;;1.92;100.00;102640.13;6272691;22;20249;-81
2024/01/13 03:36:54;;;;;;;;;;;;;;;1.92;100.00;102634.97;6271340;22;19907;-80
2024/01/13 03:39:19;;;;;;;;;;;;;;;1.95;100.00;102634.34;6268217;22;19907;-81
2024/01/13 03:41:44;;;;;;;;;;;;;;;1.96;100.00;102632.72;6245289;22;19918;-81
2024/01/13 03:44:10;;;;;;;;;;;;;;;1.96;100.00;102633.59;6270777;22;19910;-81
2024/01/13 03:46:35;;;;;;;;;;;;;;;1.97;100.00;102629.34;6270860;22;19954;-80
2024/01/13 03:49:00;;;;;;;;;;;;;;;1.98;100.00;102623.44;6245572;22;19903;-81
2024/01/13 03:51:25;;;;;;;;;;;;;;;1.99;100.00;102617.56;6273446;22;19907;-81
2024/01/13 03:53:50;;;;;;;;;;;;;;;2.00;100.00;102622.81;6273323;22;19966;-81
2024/01/13 03:56:16;;;;;;;;;;;;;;;2.00;100.00;102617.69;6272917;22;19903;-81
2024/01/13 03:58:41;;;;;;;;;;;;;;;2.01;100.00;102616.00;6269568;22;19915;-81
2024/01/13 04:01:08;;;;;;;;;;;;;;;2.01;100.00;102609.16;6273247;22;20245;-81
2024/01/13 04:03:33;;;;;;;;;;;;;;;2.02;100.00;102611.00;6271113;22;19907;-80
2024/01/13 04:06:00;;;;;;;;;;;;;;;2.03;100.00;102617.06;6268471;22;20380;-81
2024/01/13 04:08:25;;;;;;;;;;;;;;;2.02;100.00;102611.00;6269746;22;20240;-81
2024/01/13 04:10:51;;;;;;;;;;;;;;;2.03;100.00;102606.78;6270534;22;19930;-80
2024/01/13 04:13:16;;;;;;;;;;;;;;;2.04;100.00;102608.53;6267806;22;19907;-80
2024/01/13 04:15:41;;;;;;;;;;;;;;;2.05;100.00;102605.22;6270332;22;19907;-81
2024/01/13 04:18:07;;;;;;;;;;;;;;;2.05;100.00;102598.41;6273217;22;20329;-81
2024/01/13 04:20:32;;;;;;;;;;;;;;;2.05;100.00;102585.53;6274958;22;20404;-81
2024/01/13 04:22:57;;;;;;;;;;;;;;;2.07;100.00;102593.38;6273509;22;19915;-81
2024/01/13 04:25:23;;;;;;;;;;;;;;;2.06;100.00;102601.88;6274334;22;19965;-81
2024/01/13 04:27:50;;;;;;;;;;;;;;;2.05;100.00;102585.53;6246148;22;19907;-80
2024/01/13 04:30:15;;;;;;;;;;;;;;;2.05;100.00;102592.38;6247060;22;19914;-80
2024/01/13 04:32:41;;;;;;;;;;;;;;;2.03;100.00;102584.53;6273668;22;19903;-81
2024/01/13 04:35:06;;;;;;;;;;;;;;;2.04;100.00;102575.13;6247934;22;19911;-81
2024/01/13 04:37:32;;;;;;;;;;;;;;;2.04;100.00;102578.63;6273686;22;19911;-81
2024/01/13 04:39:57;;;;;;;;;;;;;;;2.03;100.00;102583.63;6274663;22;20238;-81
2024/01/13 04:42:22;;;;;;;;;;;;;;;2.02;100.00;102585.28;6246783;22;19946;-81
2024/01/13 04:44:47;;;;;;;;;;;;;;;2.03;100.00;102581.06;6247156;22;19903;-80
2024/01/13 04:47:12;;;;;;;;;;;;;;;2.02;100.00;102575.00;6274231;22;19914;-80
2024/01/13 04:49:38;;;;;;;;;;;;;;;2.02;100.00;102579.25;6245889;22;19906;-80
2024/01/13 04:52:03;;;;;;;;;;;;;;;2.03;100.00;102578.50;6275224;22;19983;-80
2024/01/13 04:54:28;;;;;;;;;;;;;;;2.02;100.00;102580.13;6246963;22;19904;-80
2024/01/13 04:56:54;;;;;;;;;;;;;;;2.03;100.00;102575.91;6275257;22;19989;-80
2024/01/13 04:59:19;;;;;;;;;;;;;;;2.02;100.00;102574.09;6273580;22;19953;-80
2024/01/13 05:01:44;;;;;;;;;;;;;;;2.02;100.00;102571.53;6245817;22;19910;-80
2024/01/13 05:04:09;;;;;;;;;;;;;;;2.01;100.00;102573.19;6274225;22;19909;-80
2024/01/13 05:06:35;;;;;;;;;;;;;;;2.01;100.00;102578.31;6274775;22;20238;-80
2024/01/13 05:09:00;;;;;;;;;;;;;;;2.01;100.00;102582.56;6247151;22;20029;-80
2024/01/13 05:11:25;;;;;;;;;;;;;;;2.01;100.00;102568.03;6246018;22;19952;-80
2024/01/13 05:13:50;;;;;;;;;;;;;;;2.02;100.00;102566.38;6274465;22;19984;-80
2024/01/13 05:16:16;;;;;;;;;;;;;;;2.02;100.00;102564.72;6246475;22;19978;-80
2024/01/13 05:18:41;;;;;;;;;;;;;;;2.02;100.00;102563.81;6243779;22;19911;-80
2024/01/13 05:21:06;;;;;;;;;;;;;;;2.02;100.00;102566.38;6271197;22;19903;-80
2024/01/13 05:23:31;;;;;;;;;;;;;;;2.03;100.00;102570.78;6245397;22;19953;-80
2024/01/13 05:25:57;;;;;;;;;;;;;;;2.03;100.00;102574.22;6273464;22;20207;-80
2024/01/13 05:28:22;;;;;;;;;;;;;;;2.04;100.00;102562.25;6246870;22;20066;-81
2024/01/13 05:30:47;;;;;;;;;;;;;;;2.04;100.00;102567.41;6274234;22;19903;-80
2024/01/13 05:33:12;;;;;;;;;;;;;;;2.02;100.00;102567.28;6246146;22;19910;-81
2024/01/13 05:35:38;;;;;;;;;;;;;;;2.02;100.00;102562.13;6274680;22;19903;-81
2024/01/13 05:38:03;;;;;;;;;;;;;;;2.02;100.00;102557.00;6273726;22;19934;-81
2024/01/13 05:40:28;;;;;;;;;;;;;;;2.02;100.00;102553.53;6269080;22;19903;-81
2024/01/13 05:42:53;;;;;;;;;;;;;;;2.02;100.00;102561.25;6269208;22;19915;-80
2024/01/13 05:45:20;;;;;;;;;;;;;;;2.03;100.00;102555.34;6270065;22;19915;-80
2024/01/13 05:47:45;;;;;;;;;;;;;;;2.02;100.00;102562.13;6272988;22;20336;-80
2024/01/13 05:50:10;;;;;;;;;;;;;;;2.03;100.00;102557.91;6271974;22;19953;-81
2024/01/13 05:52:36;;;;;;;;;;;;;;;2.02;100.00;102548.41;6269319;22;19972;-81
2024/01/13 05:55:03;;;;;;;;;;;;;;;2.02;100.00;102548.41;6268827;22;19903;-81
2024/01/13 05:57:28;;;;;;;;;;;;;;;2.02;100.00;102553.53;6244822;22;19915;-80
2024/01/13 05:59:53;;;;;;;;;;;;;;;2.02;100.00;102559.56;6270292;22;20002;-80
2024/01/13 06:02:18;;;;;;;;;;;;;;;2.02;100.00;102566.38;6269717;22;19903;-81
2024/01/13 06:04:43;;;;;;;;;;;;;;;2.01;100.00;102572.28;6270496;22;19907;-80
2024/01/13 06:07:09;;;;;;;;;;;;;;;2.00;100.00;102561.13;6272867;22;19907;-80
2024/01/13 06:09:34;;;;;;;;;;;;;;;1.99;100.00;102566.13;6270596;22;19903;-80
2024/01/13 06:11:59;;;;;;;;;;;;;;;2.00;100.00;102570.47;6269609;22;19913;-80
2024/01/13 06:14:25;;;;;;;;;;;;;;;2.00;100.00;102566.25;6272344;22;19910;-80
2024/01/13 06:16:50;;;;;;;;;;;;;;;2.00;100.00;102557.63;6269101;22;19907;-80
2024/01/13 06:19:15;;;;;;;;;;;;;;;2.00;100.00;102544.78;6271607;22;19922;-80
2024/01/13 06:21:43;;;;;;;;;;;;;;;2.00;100.00;102539.63;6271435;22;20393;-80
2024/01/13 06:24:12;;;;;;;;;;;;;;;2.00;100.00;102539.63;6273261;22;20082;-80
2024/01/13 06:26:40;;;;;;;;;;;;;;;1.99;100.00;102528.47;6270447;22;19907;-80
2024/01/13 06:29:06;;;;;;;;;;;;;;;1.99;100.00;102518.19;6270584;22;19907;-80
2024/01/13 06:31:32;;;;;;;;;;;;;;;1.99;100.00;102522.44;6244200;22;20280;-80
2024/01/13 06:33:57;;;;;;;;;;;;;;;1.99;100.00;102510.47;6272895;22;19985;-80
2024/01/13 06:36:22;;;;;;;;;;;;;;;2.00;100.00;102503.63;6273604;22;20314;-80
2024/01/13 06:38:48;;;;;;;;;;;;;;;1.99;100.00;102496.72;6246525;22;19914;-80
2024/01/13 06:41:13;;;;;;;;;;;;;;;1.99;100.00;102504.44;6272480;22;20233;-80
2024/01/13 06:43:38;;;;;;;;;;;;;;;1.98;100.00;102511.22;6273602;22;19930;-80
2024/01/13 06:46:05;;;;;;;;;;;;;;;1.98;100.00;102505.19;6269116;22;19906;-80
2024/01/13 06:48:31;;;;;;;;;;;;;;;1.97;100.00;102503.38;6240932;22;19907;-80
2024/01/13 06:50:56;;;;;;;;;;;;;;;1.98;100.00;102505.19;6241975;22;19948;-80
2024/01/13 06:53:21;;;;;;;;;;;;;;;1.99;100.00;102509.56;6269876;22;19903;-80
2024/01/13 06:55:46;;;;;;;;;;;;;;;1.99;100.00;102501.88;6244554;22;20272;-80
2024/01/13 06:58:12;;;;;;;;;;;;;;;1.99;100.00;102489.00;6273955;22;19907;-80
2024/01/13 07:00:39;;;;;;;;;;;;;;;1.99;100.00;102477.03;6246028;22;20286;-80
2024/01/13 07:03:04;;;;;;;;;;;;;;;2.00;100.00;102463.44;6268633;22;20086;-80
2024/01/13 07:05:29;;;;;;;;;;;;;;;2.01;100.00;102477.16;6272562;22;19962;-80
2024/01/13 07:07:55;;;;;;;;;;;;;;;2.01;100.00;102472.03;6273166;22;19900;-81
2024/01/13 07:10:20;;;;;;;;;;;;;;;2.01;100.00;102464.31;6274539;22;20362;-80
2024/01/13 07:12:46;;;;;;;;;;;;;;;2.01;100.00;102454.03;6246686;22;20345;-81
2024/01/13 07:15:11;;;;;;;;;;;;;;;2.01;100.00;102442.06;6273249;22;19978;-80
2024/01/13 07:17:36;;;;;;;;;;;;;;;2.01;100.00;102442.06;6273556;22;19993;-81
2024/01/13 07:20:03;;;;;;;;;;;;;;;2.01;100.00;102446.31;6273374;22;19939;-80
2024/01/13 07:22:29;;;;;;;;;;;;;;;2.01;100.00;102438.59;6273564;22;19903;-80
2024/01/13 07:24:55;;;;;;;;;;;;;;;2.02;100.00;102445.56;6273681;22;19917;-80
2024/01/13 07:27:20;;;;;;;;;;;;;;;2.02;100.00;102440.41;6273499;22;20492;-81
2024/01/13 07:29:45;;;;;;;;;;;;;;;2.01;100.00;102438.59;6273669;22;19997;-81
2024/01/13 07:32:12;;;;;;;;;;;;;;;2.01;100.00;102429.22;6273497;22;19903;-80
2024/01/13 07:34:38;;;;;;;;;;;;;;;2.01;100.00;102430.91;6246714;22;19903;-81
2024/01/13 07:37:03;;;;;;;;;;;;;;;2.01;100.00;102433.47;6273271;22;19910;-80
2024/01/13 07:39:28;;;;;;;;;;;;;;;2.02;100.00;102432.72;6273652;22;19982;-81
2024/01/13 07:41:53;;;;;;;;;;;;;;;2.02;100.00;102446.44;6273451;22;19965;-81
2024/01/13 07:44:19;;;;;;;;;;;;;;;2.02;100.00;102440.41;6273608;22;20344;-81
2024/01/13 07:46:44;;;;;;;;;;;;;;;2.03;100.00;102426.81;6272999;22;19903;-80
2024/01/13 07:49:09;;;;;;;;;;;;;;;2.03;100.00;102431.94;6268010;22;19910;-80
2024/01/13 07:51:35;;;;;;;;;;;;;;;2.04;100.00;102431.16;6241779;22;19907;-81
2024/01/13 07:54:00;;;;;;;;;;;;;;;2.02;100.00;102409.56;6243641;22;20406;-81
2024/01/13 07:56:25;;;;;;;;;;;;;;;2.02;100.00;102404.44;6270839;22;19979;-81
2024/01/13 07:58:51;;;;;;;;;;;;;;;2.02;100.00;102394.16;6244041;22;19911;-81
2024/01/13 08:01:18;;;;;;;;;;;;;;;2.02;100.00;102389.88;6270013;22;20331;-81
2024/01/13 08:03:43;;;;;;;;;;;;;;;2.02;100.00;102392.47;6270237;22;19962;-81
2024/01/13 08:06:09;;;;;;;;;;;;;;;2.03;100.00;102408.81;6245919;22;20402;-81
2024/01/13 08:08:34;;;;;;;;;;;;;;;2.02;100.00;102395.03;6273726;22;19907;-81
2024/01/13 08:10:59;;;;;;;;;;;;;;;2.02;100.00;102389.00;6244502;22;19994;-81
2024/01/13 08:13:24;;;;;;;;;;;;;;;2.03;100.00;102380.53;6245209;22;19903;-81
2024/01/13 08:15:50;;;;;;;;;;;;;;;2.03;100.00;102365.09;6272022;22;19907;-80
2024/01/13 08:18:15;;;;;;;;;;;;;;;2.04;100.00;102377.16;6272552;22;19914;-80
2024/01/13 08:20:40;;;;;;;;;;;;;;;2.06;100.00;102383.34;6272448;22;20338;-81
2024/01/13 08:23:05;;;;;;;;;;;;;;;2.06;100.00;102375.63;6244907;22;19904;-81
2024/01/13 08:25:31;;;;;;;;;;;;;;;2.06;100.00;102357.63;6242941;22;19907;-80
2024/01/13 08:27:56;;;;;;;;;;;;;;;2.07;100.00;102355.19;6242307;22;19911;-81
2024/01/13 08:30:21;;;;;;;;;;;;;;;2.07;100.00;102351.69;6271504;22;19930;-80
2024/01/13 08:32:46;;;;;;;;;;;;;;;2.08;100.00;102356.97;6246924;22;19985;-80
2024/01/13 08:35:12;;;;;;;;;;;;;;;2.09;100.00;102366.50;6274093;22;19903;-81
2024/01/13 08:37:37;;;;;;;;;;;;;;;2.11;100.00;102353.75;6247455;22;19953;-81
2024/01/13 08:40:04;;;;;;;;;;;;;;;2.11;100.00;102358.91;6274802;22;19988;-81
2024/01/13 08:42:30;;;;;;;;;;;;;;;2.12;100.00;102358.13;6274226;22;20483;-81
2024/01/13 08:44:55;;;;;;;;;;;;;;;2.14;100.00;102363.41;6274642;22;19914;-80
2024/01/13 08:47:21;;;;;;;;;;;;;;;2.15;100.00;102378.94;6273959;22;19903;-80
2024/01/13 08:49:46;;;;;;;;;;;;;;;2.15;100.00;102371.25;6273703;22;19914;-81
2024/01/13 08:52:11;;;;;;;;;;;;;;;2.16;100.00;102377.28;6247609;22;19896;-80
2024/01/13 08:54:37;;;;;;;;;;;;;;;2.16;100.00;102373.03;6272571;22;19939;-80
2024/01/13 08:57:05;;;;;;;;;;;;;;;2.17;100.00;102373.94;6274411;22;20126;-80
2024/01/13 08:59:32;;;;;;;;;;;;;;;2.16;100.00;102375.63;6273152;22;19990;-80
2024/01/13 09:01:58;;;;;;;;;;;;;;;2.17;100.00;102376.50;6274641;22;19903;-80
2024/01/13 09:04:23;;;;;;;;;;;;;;;2.18;100.00;102375.75;6274179;22;19956;-80
2024/01/13 09:06:48;;;;;;;;;;;;;;;2.19;100.00;102372.41;6273079;22;19907;-81
2024/01/13 09:09:14;;;;;;;;;;;;;;;2.19;100.00;102374.97;6274390;22;19903;-80
2024/01/13 09:11:41;;;;;;;;;;;;;;;2.20;100.00;102381.91;6246742;22;19903;-80
2024/01/13 09:14:07;;;;;;;;;;;;;;;2.20;100.00;102375.09;6272719;22;19973;-80
2024/01/13 09:16:32;;;;;;;;;;;;;;;2.19;100.00;102373.28;6247631;22;20310;-81
2024/01/13 09:18:57;;;;;;;;;;;;;;;2.21;100.00;102381.13;6274643;22;20215;-80
2024/01/13 09:21:23;;;;;;;;;;;;;;;2.20;100.00;102369.97;6274773;22;19903;-80
2024/01/13 09:23:48;;;;;;;;;;;;;;;2.20;100.00;102372.53;6273523;22;19914;-80
2024/01/13 09:26:14;;;;;;;;;;;;;;;2.21;100.00;102373.41;6273965;22;20241;-80
2024/01/13 09:28:39;;;;;;;;;;;;;;;2.21;100.00;102361.44;6273826;22;19899;-80
2024/01/13 09:31:04;;;;;;;;;;;;;;;2.23;100.00;102365.06;6273503;22;19934;-81
2024/01/13 09:33:30;;;;;;;;;;;;;;;2.23;100.00;102371.84;6271265;22;19915;-81
2024/01/13 09:35:55;;;;;;;;;;;;;;;2.25;100.00;102367.75;6274166;22;19900;-81
2024/01/13 09:38:21;;;;;;;;;;;;;;;2.25;100.00;102367.75;6273658;22;20386;-80
2024/01/13 09:40:46;;;;;;;;;;;;;;;2.25;100.00;102370.31;6273476;22;19903;-80
2024/01/13 09:43:17;;;;;;;;;;;;;;;2.25;100.00;102366.06;6273762;22;19911;-80
2024/01/13 09:45:44;;;;;;;;;;;;;;;2.26;100.00;102359.28;6247517;22;19904;-81
2024/01/13 09:48:12;;;;;;;;;;;;;;;2.25;100.00;102355.78;6273629;22;20297;-80
2024/01/13 09:50:40;;;;;;;;;;;;;;;2.25;100.00;102363.50;6273638;22;19907;-80
2024/01/13 09:53:07;;;;;;;;;;;;;;;2.26;100.00;102357.59;6270978;22;19911;-80
2024/01/13 09:55:33;;;;;;;;;;;;;;;2.26;100.00;102355.03;6269014;22;20329;-80
2024/01/13 09:57:59;;;;;;;;;;;;;;;2.28;100.00;102346.53;6268658;22;19911;-80
2024/01/13 10:00:30;;;;;;;;;;;;;;;2.28;100.00;102343.97;6246388;22;19907;-80
2024/01/13 10:02:55;;;;;;;;;;;;;;;2.29;100.00;102338.03;6244166;22;19903;-80
2024/01/13 10:05:20;;;;;;;;;;;;;;;2.28;100.00;102341.41;6246903;22;20348;-80
2024/01/13 10:07:50;;;;;;;;;;;;;;;2.30;100.00;102337.25;6243655;22;19907;-81
2024/01/13 10:10:16;;;;;;;;;;;;;;;2.29;100.00;102331.22;6272639;22;19910;-81
2024/01/13 10:12:42;;;;;;;;;;;;;;;2.29;100.00;102333.81;6274160;22;19911;-81
2024/01/13 10:15:14;;;;;;;;;;;;;;;2.31;100.00;102334.81;6245570;22;19986;-79
2024/01/13 10:17:39;;;;;;;;;;;;;;;2.31;100.00;102328.78;6273599;22;20234;-78
2024/01/13 10:20:08;;;;;;;;;;;;;;;2.31;100.00;102329.66;6274136;22;19907;-81
2024/01/13 10:22:36;;;;;;;;;;;;;;;2.32;100.00;102330.56;6273265;22;19978;-81
2024/01/13 10:25:01;;;;;;;;;;;;;;;2.33;100.00;102332.38;6273023;22;20262;-80
2024/01/13 10:27:27;;;;;;;;;;;;;;;2.34;100.00;102327.34;6272765;22;19949;-82
2024/01/13 10:29:52;;;;;;;;;;;;;;;2.35;100.00;102330.84;6273740;22;19903;-82
2024/01/13 10:32:17;;;;;;;;;;;;;;;2.35;100.00;102328.25;6246273;22;20330;-82
2024/01/13 10:34:50;;;;;;;;;;;;;;;2.36;100.00;102319.75;6274446;22;20286;-82
2024/01/13 10:37:15;;;;;;;;;;;;;;;2.37;100.00;102316.41;6245180;22;19907;-82
2024/01/13 10:39:41;;;;;;;;;;;;;;;2.39;100.00;102325.13;6246288;22;19910;-82
2024/01/13 10:42:08;;;;;;;;;;;;;;;2.38;100.00;102324.25;6273819;22;19911;-82
2024/01/13 10:44:39;;;;;;;;;;;;;;;2.38;100.00;102323.38;6272486;22;19952;-82
2024/01/13 10:47:07;;;;;;;;;;;;;;;2.38;100.00;102313.06;6273257;22;19911;-82
2024/01/13 10:49:35;;;;;;;;;;;;;;;2.38;100.00;102310.50;6273564;22;19903;-81
2024/01/13 10:52:01;;;;;;;;;;;;;;;2.38;100.00;102305.34;6246758;22;19907;-82
2024/01/13 10:54:31;;;;;;;;;;;;;;;2.38;100.00;102306.25;6273475;22;19957;-83
2024/01/13 10:56:57;;;;;;;;;;;;;;;2.39;100.00;102300.34;6272604;22;19911;-81
2024/01/13 10:59:26;;;;;;;;;;;;;;;2.39;100.00;102295.19;6272855;22;19956;-82
2024/01/13 11:01:53;;;;;;;;;;;;;;;2.39;100.00;102294.25;6246123;22;19903;-82
2024/01/13 11:04:19;;;;;;;;;;;;;;;2.39;100.00;102292.63;6246489;22;19910;-81
2024/01/13 11:06:45;;;;;;;;;;;;;;;2.40;100.00;102288.34;6273550;22;19982;-82
2024/01/13 11:09:12;;;;;;;;;;;;;;;2.40;100.00;102275.50;6272861;22;19938;-82
2024/01/13 11:11:40;;;;;;;;;;;;;;;2.40;100.00;102281.56;6273572;22;20343;-81
2024/01/13 11:14:07;;;;;;;;;;;;;;;2.40;100.00;102278.06;6272937;22;19907;-82
2024/01/13 11:16:33;;;;;;;;;;;;;;;2.41;100.00;102283.34;6273798;22;19903;-81
2024/01/13 11:18:59;;;;;;;;;;;;;;;2.42;100.00;102273.97;6273118;22;20211;-81
2024/01/13 11:21:28;;;;;;;;;;;;;;;2.40;100.00;102266.13;6272882;22;19956;-81
2024/01/13 11:23:53;;;;;;;;;;;;;;;2.40;100.00;102258.41;6246084;22;19903;-81
2024/01/13 11:26:19;;;;;;;;;;;;;;;2.40;100.00;102268.69;6272735;22;19907;-81
2024/01/13 11:28:51;;;;;;;;;;;;;;;2.40;100.00;102265.19;6272811;22;19907;-81
2024/01/13 11:31:29;;;;;;;;;;;;;;;2.41;100.00;102264.44;6245763;22;19907;-82
2024/01/13 11:33:55;;;;;;;;;;;;;;;2.41;100.00;102270.47;6273472;22;19911;-81
2024/01/13 11:36:20;;;;;;;;;;;;;;;2.40;100.00;102265.19;6272435;22;19927;-81
2024/01/13 11:38:45;;;;;;;;;;;;;;;2.41;100.00;102267.00;6244532;22;20294;-81
2024/01/13 11:41:12;;;;;;;;;;;;;;;2.40;100.00;102268.69;6272276;22;19907;-81
2024/01/13 11:43:39;;;;;;;;;;;;;;;2.40;100.00;102260.97;6273045;22;19907;-81
2024/01/13 11:46:09;;;;;;;;;;;;;;;2.40;100.00;102254.91;6245861;22;19911;-81
2024/01/13 11:48:35;;;;;;;;;;;;;;;2.40;100.00;102253.25;6244808;22;19903;-81
2024/01/13 11:51:00;;;;;;;;;;;;;;;2.40;100.00;102247.19;6245635;22;19903;-81
2024/01/13 11:53:34;;;;;;;;;;;;;;;2.41;100.00;102241.28;6243692;22;19907;-81
2024/01/13 11:56:00;;;;;;;;;;;;;;;2.41;100.00;102234.47;6243131;22;19911;-81
2024/01/13 11:58:26;;;;;;;;;;;;;;;2.41;100.00;102237.03;6268048;22;20241;-81
2024/01/13 12:00:52;;;;;;;;;;;;;;;2.41;100.00;102237.03;6269504;22;19935;-81
2024/01/13 12:03:17;;;;;;;;;;;;;;;2.42;100.00;102237.94;6240794;22;19961;-81
2024/01/13 12:05:42;;;;;;;;;;;;;;;2.43;100.00;102232.00;6267116;22;19913;-81
2024/01/13 12:08:07;;;;;;;;;;;;;;;2.43;100.00;102232.00;6267497;22;20251;-81
2024/01/13 12:10:40;;;;;;;;;;;;;;;2.42;100.00;102227.66;6272122;22;19967;-81
2024/01/13 12:13:13;;;;;;;;;;;;;;;2.43;100.00;102219.13;6267660;22;19911;-81
2024/01/13 12:15:41;;;;;;;;;;;;;;;2.43;100.00;102212.34;6269910;22;20310;-81
2024/01/13 12:18:06;;;;;;;;;;;;;;;2.44;100.00;102213.22;6269189;22;19915;-81
2024/01/13 12:20:32;;;;;;;;;;;;;;;2.45;100.00;102212.47;6271949;22;19948;-81
2024/01/13 12:22:57;;;;;;;;;;;;;;;2.46;100.00;102203.94;6243908;22;19903;-81
2024/01/13 12:25:22;;;;;;;;;;;;;;;2.47;100.00;102199.72;6269298;22;19934;-81
2024/01/13 12:27:48;;;;;;;;;;;;;;;2.44;100.00;102185.81;6271208;22;19911;-81